sensor_id;sensor_type;location;lat;lon;timestamp;pressure;altitude;pressure_sealevel;temperature;humidity
44313;BME280;38833;51.142;-0.974;2022-12-10T00:02:11;99400.67;;;21.42;29.68
44313;BME280;38833;51.142;-0.974;2022-12-10T00:04:45;99401.67;;;21.41;29.68
44313;BME280;38833;51.142;-0.974;2022-12-10T00:07:18;99399.80;;;21.36;29.63
44313;BME280;38833;51.142;-0.974;2022-12-10T00:09:51;99399.63;;;21.21;30.21
44313;BME280;38833;51.142;-0.974;2022-12-10T00:12:24;99397.27;;;21.08;30.30
44313;BME280;38833;51.142;-0.974;2022-12-10T00:14:57;99399.33;;;21.05;29.88
44313;BME280;38833;51.142;-0.974;2022-12-10T00:17:30;99400.77;;;21.42;29.82
44313;BME280;38833;51.142;-0.974;2022-12-10T00:20:05;99399.15;;;21.17;29.89
44313;BME280;38833;51.142;-0.974;2022-12-10T00:22:38;99397.36;;;21.28;29.95
44313;BME280;38833;51.142;-0.974;2022-12-10T00:25:11;99399.43;;;21.03;29.85
44313;BME280;38833;51.142;-0.974;2022-12-10T00:27:45;99402.34;;;21.09;30.06
44313;BME280;38833;51.142;-0.974;2022-12-10T00:30:18;99401.25;;;21.06;29.94
44313;BME280;38833;51.142;-0.974;2022-12-10T00:32:51;99400.96;;;21.13;30.25
44313;BME280;38833;51.142;-0.974;2022-12-10T00:35:25;99400.79;;;20.71;30.05
44313;BME280;38833;51.142;-0.974;2022-12-10T00:37:58;99399.81;;;20.76;30.14
44313;BME280;38833;51.142;-0.974;2022-12-10T00:40:32;99400.87;;;20.98;30.16
44313;BME280;38833;51.142;-0.974;2022-12-10T00:43:05;99399.45;;;20.76;29.99
44313;BME280;38833;51.142;-0.974;2022-12-10T00:45:39;99400.55;;;20.71;30.04
44313;BME280;38833;51.142;-0.974;2022-12-10T00:48:12;99402.55;;;20.49;30.36
44313;BME280;38833;51.142;-0.974;2022-12-10T00:50:54;99400.87;;;20.56;30.22
44313;BME280;38833;51.142;-0.974;2022-12-10T00:53:29;99402.64;;;20.54;30.43
44313;BME280;38833;51.142;-0.974;2022-12-10T00:56:04;99402.53;;;20.67;30.31
44313;BME280;38833;51.142;-0.974;2022-12-10T00:58:38;99403.66;;;20.66;30.38
44313;BME280;38833;51.142;-0.974;2022-12-10T01:01:13;99406.22;;;20.23;30.52
44313;BME280;38833;51.142;-0.974;2022-12-10T01:03:49;99407.85;;;20.11;30.58
44313;BME280;38833;51.142;-0.974;2022-12-10T01:06:25;99405.90;;;20.04;30.58
44313;BME280;38833;51.142;-0.974;2022-12-10T01:09:01;99399.90;;;20.59;30.11
44313;BME280;38833;51.142;-0.974;2022-12-10T01:11:37;99399.19;;;19.66;30.74
44313;BME280;38833;51.142;-0.974;2022-12-10T01:14:14;99406.13;;;20.14;30.72
44313;BME280;38833;51.142;-0.974;2022-12-10T01:16:49;99404.85;;;19.95;30.62
44313;BME280;38833;51.142;-0.974;2022-12-10T01:19:22;99408.95;;;20.06;30.41
44313;BME280;38833;51.142;-0.974;2022-12-10T01:21:56;99411.70;;;20.33;30.56
44313;BME280;38833;51.142;-0.974;2022-12-10T01:24:29;99413.21;;;20.42;30.47
44313;BME280;38833;51.142;-0.974;2022-12-10T01:27:03;99413.60;;;20.23;30.45
44313;BME280;38833;51.142;-0.974;2022-12-10T01:29:36;99416.50;;;20.52;30.29
44313;BME280;38833;51.142;-0.974;2022-12-10T01:32:10;99415.56;;;20.47;30.37
44313;BME280;38833;51.142;-0.974;2022-12-10T01:34:43;99421.09;;;20.66;30.16
44313;BME280;38833;51.142;-0.974;2022-12-10T01:37:16;99422.55;;;20.41;30.06
44313;BME280;38833;51.142;-0.974;2022-12-10T01:39:50;99424.69;;;20.34;30.15
44313;BME280;38833;51.142;-0.974;2022-12-10T01:42:23;99427.94;;;20.35;29.98
44313;BME280;38833;51.142;-0.974;2022-12-10T01:45:01;99427.63;;;20.66;29.99
44313;BME280;38833;51.142;-0.974;2022-12-10T01:47:35;99424.87;;;20.69;30.02
44313;BME280;38833;51.142;-0.974;2022-12-10T01:50:08;99424.95;;;20.64;30.16
44313;BME280;38833;51.142;-0.974;2022-12-10T01:52:42;99425.31;;;20.31;30.13
44313;BME280;38833;51.142;-0.974;2022-12-10T01:55:49;99427.08;;;20.43;29.89
44313;BME280;38833;51.142;-0.974;2022-12-10T01:58:23;99426.58;;;20.54;29.91
44313;BME280;38833;51.142;-0.974;2022-12-10T02:01:04;99425.84;;;20.55;29.76
44313;BME280;38833;51.142;-0.974;2022-12-10T02:03:52;99425.41;;;20.72;29.57
44313;BME280;38833;51.142;-0.974;2022-12-10T02:06:38;99424.08;;;20.51;29.58
44313;BME280;38833;51.142;-0.974;2022-12-10T02:09:21;99424.44;;;21.25;29.30
44313;BME280;38833;51.142;-0.974;2022-12-10T02:12:05;99427.34;;;21.20;29.29
44313;BME280;38833;51.142;-0.974;2022-12-10T02:14:47;99427.22;;;20.89;29.35
44313;BME280;38833;51.142;-0.974;2022-12-10T02:17:27;99426.69;;;20.80;29.21
44313;BME280;38833;51.142;-0.974;2022-12-10T02:20:07;99426.04;;;20.93;29.31
44313;BME280;38833;51.142;-0.974;2022-12-10T02:22:46;99425.95;;;20.77;29.28
44313;BME280;38833;51.142;-0.974;2022-12-10T02:25:24;99425.99;;;21.15;29.10
44313;BME280;38833;51.142;-0.974;2022-12-10T02:28:05;99421.85;;;20.86;29.19
44313;BME280;38833;51.142;-0.974;2022-12-10T02:30:41;99415.45;;;21.04;29.22
44313;BME280;38833;51.142;-0.974;2022-12-10T02:33:16;99415.77;;;21.24;29.07
44313;BME280;38833;51.142;-0.974;2022-12-10T02:35:50;99416.28;;;20.95;29.17
44313;BME280;38833;51.142;-0.974;2022-12-10T02:38:26;99414.79;;;21.06;29.04
44313;BME280;38833;51.142;-0.974;2022-12-10T02:41:05;99413.80;;;21.32;29.03
44313;BME280;38833;51.142;-0.974;2022-12-10T02:43:41;99415.87;;;21.13;29.03
44313;BME280;38833;51.142;-0.974;2022-12-10T02:46:15;99416.94;;;21.48;28.70
44313;BME280;38833;51.142;-0.974;2022-12-10T02:48:49;99414.59;;;21.39;28.81
44313;BME280;38833;51.142;-0.974;2022-12-10T02:51:23;99412.67;;;21.54;28.69
44313;BME280;38833;51.142;-0.974;2022-12-10T02:54:00;99414.06;;;21.60;28.67
44313;BME280;38833;51.142;-0.974;2022-12-10T02:56:36;99409.30;;;21.54;28.75
44313;BME280;38833;51.142;-0.974;2022-12-10T02:59:16;99409.91;;;21.67;28.66
44313;BME280;38833;51.142;-0.974;2022-12-10T03:01:56;99408.78;;;21.52;28.84
44313;BME280;38833;51.142;-0.974;2022-12-10T03:04:39;99412.72;;;22.01;28.60
44313;BME280;38833;51.142;-0.974;2022-12-10T03:07:22;99410.54;;;21.87;28.54
44313;BME280;38833;51.142;-0.974;2022-12-10T03:10:02;99409.03;;;21.79;28.65
44313;BME280;38833;51.142;-0.974;2022-12-10T03:12:41;99406.85;;;21.89;28.57
44313;BME280;38833;51.142;-0.974;2022-12-10T03:15:19;99409.59;;;21.87;28.64
44313;BME280;38833;51.142;-0.974;2022-12-10T03:17:54;99410.42;;;22.00;28.52
44313;BME280;38833;51.142;-0.974;2022-12-10T03:20:30;99410.46;;;21.99;28.58
44313;BME280;38833;51.142;-0.974;2022-12-10T03:23:08;99412.95;;;22.11;28.47
44313;BME280;38833;51.142;-0.974;2022-12-10T03:25:44;99417.75;;;21.90;28.75
44313;BME280;38833;51.142;-0.974;2022-12-10T03:28:19;99415.64;;;22.07;28.59
44313;BME280;38833;51.142;-0.974;2022-12-10T03:30:55;99416.76;;;22.08;28.59
44313;BME280;38833;51.142;-0.974;2022-12-10T03:33:30;99416.34;;;22.12;28.59
44313;BME280;38833;51.142;-0.974;2022-12-10T03:36:05;99414.74;;;22.04;28.47
44313;BME280;38833;51.142;-0.974;2022-12-10T03:38:40;99413.76;;;22.27;28.47
44313;BME280;38833;51.142;-0.974;2022-12-10T03:41:13;99411.96;;;22.07;28.45
44313;BME280;38833;51.142;-0.974;2022-12-10T03:43:52;99411.67;;;22.16;28.39
44313;BME280;38833;51.142;-0.974;2022-12-10T03:46:27;99408.23;;;22.42;28.36
44313;BME280;38833;51.142;-0.974;2022-12-10T03:49:02;99404.60;;;21.90;28.42
44313;BME280;38833;51.142;-0.974;2022-12-10T03:51:35;99402.48;;;22.38;28.45
44313;BME280;38833;51.142;-0.974;2022-12-10T03:54:08;99399.86;;;22.12;28.50
44313;BME280;38833;51.142;-0.974;2022-12-10T03:56:42;99399.49;;;22.37;28.49
44313;BME280;38833;51.142;-0.974;2022-12-10T03:59:15;99400.12;;;22.32;28.33
44313;BME280;38833;51.142;-0.974;2022-12-10T04:01:48;99399.62;;;22.41;28.25
44313;BME280;38833;51.142;-0.974;2022-12-10T04:04:22;99399.47;;;22.21;28.18
44313;BME280;38833;51.142;-0.974;2022-12-10T04:06:55;99399.12;;;22.03;28.36
44313;BME280;38833;51.142;-0.974;2022-12-10T04:09:28;99399.25;;;22.10;28.30
44313;BME280;38833;51.142;-0.974;2022-12-10T04:12:02;99401.09;;;22.48;28.19
44313;BME280;38833;51.142;-0.974;2022-12-10T04:14:35;99408.30;;;21.91;28.51
44313;BME280;38833;51.142;-0.974;2022-12-10T04:17:08;99405.44;;;22.11;28.32
44313;BME280;38833;51.142;-0.974;2022-12-10T04:19:41;99409.22;;;21.98;28.41
44313;BME280;38833;51.142;-0.974;2022-12-10T04:22:14;99410.61;;;22.09;28.35
44313;BME280;38833;51.142;-0.974;2022-12-10T04:24:47;99413.64;;;22.54;28.16
44313;BME280;38833;51.142;-0.974;2022-12-10T04:27:24;99412.68;;;22.29;28.13
44313;BME280;38833;51.142;-0.974;2022-12-10T04:29:59;99412.74;;;22.26;28.15
44313;BME280;38833;51.142;-0.974;2022-12-10T04:32:32;99414.95;;;22.09;28.35
44313;BME280;38833;51.142;-0.974;2022-12-10T04:35:06;99408.57;;;22.24;28.19
44313;BME280;38833;51.142;-0.974;2022-12-10T04:37:40;99411.34;;;22.58;28.12
44313;BME280;38833;51.142;-0.974;2022-12-10T04:40:13;99410.01;;;22.24;28.19
44313;BME280;38833;51.142;-0.974;2022-12-10T04:42:46;99408.76;;;22.31;28.12
44313;BME280;38833;51.142;-0.974;2022-12-10T04:45:19;99410.08;;;22.23;28.23
44313;BME280;38833;51.142;-0.974;2022-12-10T04:47:52;99410.76;;;22.49;28.23
44313;BME280;38833;51.142;-0.974;2022-12-10T04:50:26;99410.32;;;22.31;28.13
44313;BME280;38833;51.142;-0.974;2022-12-10T04:52:59;99411.72;;;22.67;28.26
44313;BME280;38833;51.142;-0.974;2022-12-10T04:55:32;99414.02;;;22.57;28.40
44313;BME280;38833;51.142;-0.974;2022-12-10T04:58:05;99412.65;;;22.33;28.15
44313;BME280;38833;51.142;-0.974;2022-12-10T05:02:28;99406.62;;;22.30;28.16
44313;BME280;38833;51.142;-0.974;2022-12-10T05:05:01;99406.93;;;22.21;28.03
44313;BME280;38833;51.142;-0.974;2022-12-10T05:07:34;99409.68;;;22.39;27.86
44313;BME280;38833;51.142;-0.974;2022-12-10T05:10:08;99410.17;;;22.66;27.55
44313;BME280;38833;51.142;-0.974;2022-12-10T05:12:41;99412.51;;;22.37;27.57
44313;BME280;38833;51.142;-0.974;2022-12-10T05:15:14;99411.67;;;22.93;27.29
44313;BME280;38833;51.142;-0.974;2022-12-10T05:17:48;99414.88;;;22.52;27.42
44313;BME280;38833;51.142;-0.974;2022-12-10T05:20:21;99411.94;;;22.52;27.44
44313;BME280;38833;51.142;-0.974;2022-12-10T05:22:54;99408.36;;;22.54;27.38
44313;BME280;38833;51.142;-0.974;2022-12-10T05:25:27;99412.84;;;22.56;27.37
44313;BME280;38833;51.142;-0.974;2022-12-10T05:28:00;99414.81;;;22.84;27.36
44313;BME280;38833;51.142;-0.974;2022-12-10T05:30:34;99410.46;;;22.77;27.16
44313;BME280;38833;51.142;-0.974;2022-12-10T05:33:08;99409.80;;;22.75;27.18
44313;BME280;38833;51.142;-0.974;2022-12-10T05:35:41;99412.57;;;22.55;27.37
44313;BME280;38833;51.142;-0.974;2022-12-10T05:38:14;99410.05;;;23.00;27.23
44313;BME280;38833;51.142;-0.974;2022-12-10T05:40:47;99407.07;;;23.20;27.22
44313;BME280;38833;51.142;-0.974;2022-12-10T05:43:21;99408.76;;;22.61;27.30
44313;BME280;38833;51.142;-0.974;2022-12-10T05:45:57;99411.24;;;22.67;27.52
44313;BME280;38833;51.142;-0.974;2022-12-10T05:48:32;99410.23;;;22.63;27.33
44313;BME280;38833;51.142;-0.974;2022-12-10T05:51:07;99408.80;;;22.67;27.27
44313;BME280;38833;51.142;-0.974;2022-12-10T05:53:41;99409.94;;;22.51;27.42
44313;BME280;38833;51.142;-0.974;2022-12-10T05:56:17;99406.85;;;22.69;27.22
44313;BME280;38833;51.142;-0.974;2022-12-10T05:58:52;99409.46;;;22.51;27.42
44313;BME280;38833;51.142;-0.974;2022-12-10T06:01:28;99409.85;;;22.68;27.25
44313;BME280;38833;51.142;-0.974;2022-12-10T06:04:03;99411.08;;;22.97;27.42
44313;BME280;38833;51.142;-0.974;2022-12-10T06:06:38;99410.41;;;22.88;27.54
44313;BME280;38833;51.142;-0.974;2022-12-10T06:09:13;99410.02;;;22.81;27.63
44313;BME280;38833;51.142;-0.974;2022-12-10T06:11:46;99409.84;;;22.60;27.85
44313;BME280;38833;51.142;-0.974;2022-12-10T06:14:19;99412.55;;;22.76;27.70
44313;BME280;38833;51.142;-0.974;2022-12-10T06:16:52;99410.01;;;22.69;27.80
44313;BME280;38833;51.142;-0.974;2022-12-10T06:19:26;99407.68;;;22.76;27.73
44313;BME280;38833;51.142;-0.974;2022-12-10T06:21:59;99407.72;;;22.61;27.88
44313;BME280;38833;51.142;-0.974;2022-12-10T06:24:32;99409.09;;;22.79;27.73
44313;BME280;38833;51.142;-0.974;2022-12-10T06:27:05;99407.63;;;22.74;27.80
44313;BME280;38833;51.142;-0.974;2022-12-10T06:29:38;99409.77;;;22.78;27.77
44313;BME280;38833;51.142;-0.974;2022-12-10T06:32:11;99413.43;;;23.20;27.86
44313;BME280;38833;51.142;-0.974;2022-12-10T06:34:45;99413.72;;;22.83;27.77
44313;BME280;38833;51.142;-0.974;2022-12-10T06:37:18;99416.69;;;22.84;27.77
44313;BME280;38833;51.142;-0.974;2022-12-10T06:39:51;99417.42;;;22.84;27.81
44313;BME280;38833;51.142;-0.974;2022-12-10T06:42:25;99422.85;;;22.72;27.75
44313;BME280;38833;51.142;-0.974;2022-12-10T06:44:58;99422.88;;;22.91;27.84
44313;BME280;38833;51.142;-0.974;2022-12-10T06:47:31;99423.83;;;22.94;27.89
44313;BME280;38833;51.142;-0.974;2022-12-10T06:50:05;99425.31;;;22.99;27.91
44313;BME280;38833;51.142;-0.974;2022-12-10T06:52:38;99425.27;;;23.05;27.94
44313;BME280;38833;51.142;-0.974;2022-12-10T06:55:12;99423.83;;;23.02;28.05
44313;BME280;38833;51.142;-0.974;2022-12-10T06:57:45;99427.38;;;23.12;28.03
44313;BME280;38833;51.142;-0.974;2022-12-10T07:00:19;99425.17;;;22.98;28.02
44313;BME280;38833;51.142;-0.974;2022-12-10T07:02:52;99423.17;;;23.33;27.94
44313;BME280;38833;51.142;-0.974;2022-12-10T07:05:25;99419.32;;;23.37;27.95
44313;BME280;38833;51.142;-0.974;2022-12-10T07:07:59;99418.16;;;23.44;27.89
44313;BME280;38833;51.142;-0.974;2022-12-10T07:10:32;99417.91;;;23.26;27.89
44313;BME280;38833;51.142;-0.974;2022-12-10T07:13:05;99419.03;;;23.39;27.77
44313;BME280;38833;51.142;-0.974;2022-12-10T07:15:38;99418.00;;;23.09;27.82
44313;BME280;38833;51.142;-0.974;2022-12-10T07:18:11;99422.31;;;23.68;27.71
44313;BME280;38833;51.142;-0.974;2022-12-10T07:20:45;99426.89;;;23.21;27.68
44313;BME280;38833;51.142;-0.974;2022-12-10T07:23:18;99427.10;;;23.45;27.68
44313;BME280;38833;51.142;-0.974;2022-12-10T07:25:54;99427.66;;;23.48;27.65
44313;BME280;38833;51.142;-0.974;2022-12-10T07:28:27;99427.26;;;23.42;27.68
44313;BME280;38833;51.142;-0.974;2022-12-10T07:31:01;99427.41;;;23.36;27.46
44313;BME280;38833;51.142;-0.974;2022-12-10T07:33:34;99430.61;;;23.26;27.54
44313;BME280;38833;51.142;-0.974;2022-12-10T07:36:10;99434.89;;;23.33;27.42
44313;BME280;38833;51.142;-0.974;2022-12-10T07:38:44;99436.78;;;23.56;27.41
44313;BME280;38833;51.142;-0.974;2022-12-10T07:41:18;99436.47;;;23.45;27.49
44313;BME280;38833;51.142;-0.974;2022-12-10T07:43:51;99432.68;;;23.31;27.62
44313;BME280;38833;51.142;-0.974;2022-12-10T07:46:26;99430.95;;;23.19;27.71
44313;BME280;38833;51.142;-0.974;2022-12-10T07:49:02;99428.53;;;23.33;27.79
44313;BME280;38833;51.142;-0.974;2022-12-10T07:51:35;99428.19;;;23.48;27.66
44313;BME280;38833;51.142;-0.974;2022-12-10T07:54:09;99432.47;;;23.57;27.57
44313;BME280;38833;51.142;-0.974;2022-12-10T07:56:42;99435.61;;;23.50;27.45
44313;BME280;38833;51.142;-0.974;2022-12-10T07:59:15;99434.96;;;23.52;27.47
44313;BME280;38833;51.142;-0.974;2022-12-10T08:01:48;99432.12;;;23.60;27.45
44313;BME280;38833;51.142;-0.974;2022-12-10T08:04:22;99433.11;;;23.60;27.50
44313;BME280;38833;51.142;-0.974;2022-12-10T08:06:55;99434.68;;;23.35;27.53
44313;BME280;38833;51.142;-0.974;2022-12-10T08:09:28;99434.53;;;23.44;27.48
44313;BME280;38833;51.142;-0.974;2022-12-10T08:12:02;99434.73;;;23.71;27.51
44313;BME280;38833;51.142;-0.974;2022-12-10T08:14:35;99434.18;;;24.15;27.30
44313;BME280;38833;51.142;-0.974;2022-12-10T08:17:08;99436.42;;;23.35;27.62
44313;BME280;38833;51.142;-0.974;2022-12-10T08:19:41;99435.52;;;23.49;27.48
44313;BME280;38833;51.142;-0.974;2022-12-10T08:22:14;99432.61;;;23.41;27.55
44313;BME280;38833;51.142;-0.974;2022-12-10T08:24:48;99435.24;;;23.72;27.50
44313;BME280;38833;51.142;-0.974;2022-12-10T08:27:21;99439.00;;;23.59;27.60
44313;BME280;38833;51.142;-0.974;2022-12-10T08:29:54;99438.12;;;23.88;27.32
44313;BME280;38833;51.142;-0.974;2022-12-10T08:32:27;99439.36;;;23.88;27.30
44313;BME280;38833;51.142;-0.974;2022-12-10T08:35:00;99442.30;;;23.54;27.33
44313;BME280;38833;51.142;-0.974;2022-12-10T08:37:34;99442.72;;;23.58;27.28
44313;BME280;38833;51.142;-0.974;2022-12-10T08:40:08;99446.82;;;23.56;27.27
44313;BME280;38833;51.142;-0.974;2022-12-10T08:42:41;99450.96;;;23.26;27.56
44313;BME280;38833;51.142;-0.974;2022-12-10T08:45:14;99450.92;;;23.48;27.56
44313;BME280;38833;51.142;-0.974;2022-12-10T08:47:47;99449.95;;;23.50;27.54
44313;BME280;38833;51.142;-0.974;2022-12-10T08:50:21;99449.56;;;23.37;27.63
44313;BME280;38833;51.142;-0.974;2022-12-10T08:52:54;99453.31;;;23.40;27.55
44313;BME280;38833;51.142;-0.974;2022-12-10T08:55:27;99452.57;;;23.47;27.45
44313;BME280;38833;51.142;-0.974;2022-12-10T08:58:00;99452.81;;;23.55;27.57
44313;BME280;38833;51.142;-0.974;2022-12-10T09:00:38;99452.70;;;23.37;27.50
44313;BME280;38833;51.142;-0.974;2022-12-10T09:03:12;99452.50;;;23.45;27.63
44313;BME280;38833;51.142;-0.974;2022-12-10T09:05:45;99454.52;;;23.33;27.71
44313;BME280;38833;51.142;-0.974;2022-12-10T09:08:19;99451.63;;;23.18;27.83
44313;BME280;38833;51.142;-0.974;2022-12-10T09:10:53;99454.29;;;23.31;27.67
44313;BME280;38833;51.142;-0.974;2022-12-10T09:13:26;99451.89;;;23.27;27.68
44313;BME280;38833;51.142;-0.974;2022-12-10T09:15:59;99454.41;;;23.25;27.68
44313;BME280;38833;51.142;-0.974;2022-12-10T09:18:33;99454.44;;;23.04;27.88
44313;BME280;38833;51.142;-0.974;2022-12-10T09:21:08;99459.41;;;23.14;27.74
44313;BME280;38833;51.142;-0.974;2022-12-10T09:23:43;99455.73;;;22.97;27.86
44313;BME280;38833;51.142;-0.974;2022-12-10T09:26:16;99453.27;;;23.00;27.80
44313;BME280;38833;51.142;-0.974;2022-12-10T09:28:49;99454.63;;;22.87;27.94
44313;BME280;38833;51.142;-0.974;2022-12-10T09:31:23;99457.97;;;22.87;27.88
44313;BME280;38833;51.142;-0.974;2022-12-10T09:33:56;99456.77;;;22.90;27.82
44313;BME280;38833;51.142;-0.974;2022-12-10T09:36:29;99458.96;;;22.77;27.98
44313;BME280;38833;51.142;-0.974;2022-12-10T09:39:03;99459.23;;;22.73;27.96
44313;BME280;38833;51.142;-0.974;2022-12-10T09:42:01;99456.77;;;22.80;27.85
44313;BME280;38833;51.142;-0.974;2022-12-10T09:44:51;99458.80;;;22.66;27.97
44313;BME280;38833;51.142;-0.974;2022-12-10T09:47:32;99461.65;;;22.68;27.93
44313;BME280;38833;51.142;-0.974;2022-12-10T09:50:16;99462.03;;;22.75;27.85
44313;BME280;38833;51.142;-0.974;2022-12-10T09:52:51;99467.72;;;22.55;27.99
44313;BME280;38833;51.142;-0.974;2022-12-10T09:55:31;99472.15;;;22.54;28.00
44313;BME280;38833;51.142;-0.974;2022-12-10T09:58:09;99475.24;;;22.58;27.95
44313;BME280;38833;51.142;-0.974;2022-12-10T10:00:48;99478.32;;;22.60;27.89
44313;BME280;38833;51.142;-0.974;2022-12-10T10:03:22;99474.67;;;22.45;28.00
44313;BME280;38833;51.142;-0.974;2022-12-10T10:05:56;99474.63;;;22.39;28.07
44313;BME280;38833;51.142;-0.974;2022-12-10T10:08:33;99478.39;;;22.35;28.10
44313;BME280;38833;51.142;-0.974;2022-12-10T10:11:12;99480.00;;;22.61;28.08
44313;BME280;38833;51.142;-0.974;2022-12-10T10:13:50;99480.72;;;22.35;28.02
44313;BME280;38833;51.142;-0.974;2022-12-10T10:16:26;99483.36;;;22.29;28.07
44313;BME280;38833;51.142;-0.974;2022-12-10T10:19:03;99481.58;;;22.47;28.16
44313;BME280;38833;51.142;-0.974;2022-12-10T10:21:40;99480.33;;;22.50;28.10
44313;BME280;38833;51.142;-0.974;2022-12-10T10:24:15;99478.50;;;22.84;27.94
44313;BME280;38833;51.142;-0.974;2022-12-10T10:26:51;99478.77;;;22.54;27.98
44313;BME280;38833;51.142;-0.974;2022-12-10T10:29:25;99481.55;;;22.70;28.06
44313;BME280;38833;51.142;-0.974;2022-12-10T10:32:13;99481.50;;;22.48;28.04
44313;BME280;38833;51.142;-0.974;2022-12-10T10:34:52;99477.74;;;22.31;28.19
44313;BME280;38833;51.142;-0.974;2022-12-10T10:37:28;99477.62;;;22.05;28.19
44313;BME280;38833;51.142;-0.974;2022-12-10T10:40:03;99472.75;;;22.33;28.17
44313;BME280;38833;51.142;-0.974;2022-12-10T10:42:38;99473.11;;;22.26;28.21
44313;BME280;38833;51.142;-0.974;2022-12-10T10:45:33;99472.07;;;22.19;28.25
44313;BME280;38833;51.142;-0.974;2022-12-10T10:48:11;99472.29;;;22.61;28.06
44313;BME280;38833;51.142;-0.974;2022-12-10T10:50:48;99468.95;;;22.29;28.16
44313;BME280;38833;51.142;-0.974;2022-12-10T10:53:25;99467.18;;;22.39;28.26
44313;BME280;38833;51.142;-0.974;2022-12-10T10:56:06;99465.00;;;22.21;28.22
44313;BME280;38833;51.142;-0.974;2022-12-10T10:58:50;99467.14;;;22.54;28.10
44313;BME280;38833;51.142;-0.974;2022-12-10T11:01:43;99465.01;;;22.49;28.14
44313;BME280;38833;51.142;-0.974;2022-12-10T11:04:21;99466.08;;;22.44;28.21
44313;BME280;38833;51.142;-0.974;2022-12-10T11:07:01;99468.87;;;22.17;27.96
44313;BME280;38833;51.142;-0.974;2022-12-10T11:09:36;99470.17;;;22.43;28.20
44313;BME280;38833;51.142;-0.974;2022-12-10T11:12:28;99471.27;;;22.19;28.24
44313;BME280;38833;51.142;-0.974;2022-12-10T11:15:33;99470.27;;;22.12;28.01
44313;BME280;38833;51.142;-0.974;2022-12-10T11:18:25;99469.62;;;22.21;27.91
44313;BME280;38833;51.142;-0.974;2022-12-10T11:21:02;99471.17;;;22.12;27.99
44313;BME280;38833;51.142;-0.974;2022-12-10T11:23:38;99469.30;;;22.30;28.08
44313;BME280;38833;51.142;-0.974;2022-12-10T11:26:26;99467.91;;;22.48;27.90
44313;BME280;38833;51.142;-0.974;2022-12-10T11:29:12;99466.48;;;22.45;27.93
44313;BME280;38833;51.142;-0.974;2022-12-10T11:32:00;99468.14;;;22.67;27.94
44313;BME280;38833;51.142;-0.974;2022-12-10T11:34:44;99467.96;;;22.49;27.91
44313;BME280;38833;51.142;-0.974;2022-12-10T11:37:27;99465.00;;;22.27;27.86
44313;BME280;38833;51.142;-0.974;2022-12-10T11:40:14;99464.45;;;22.24;27.88
44313;BME280;38833;51.142;-0.974;2022-12-10T11:42:55;99462.56;;;22.18;27.95
44313;BME280;38833;51.142;-0.974;2022-12-10T11:45:42;99460.29;;;22.20;27.94
44313;BME280;38833;51.142;-0.974;2022-12-10T11:48:26;99461.53;;;22.48;27.91
44313;BME280;38833;51.142;-0.974;2022-12-10T11:51:05;99458.47;;;22.06;28.07
44313;BME280;38833;51.142;-0.974;2022-12-10T11:53:52;99456.69;;;22.42;28.22
44313;BME280;38833;51.142;-0.974;2022-12-10T11:56:31;99456.39;;;22.21;27.94
44313;BME280;38833;51.142;-0.974;2022-12-10T11:59:15;99456.02;;;22.48;27.92
44313;BME280;38833;51.142;-0.974;2022-12-10T12:02:04;99452.50;;;22.17;27.97
44313;BME280;38833;51.142;-0.974;2022-12-10T12:04:53;99448.28;;;22.21;28.22
44313;BME280;38833;51.142;-0.974;2022-12-10T12:07:38;99448.90;;;22.41;28.04
44313;BME280;38833;51.142;-0.974;2022-12-10T12:10:26;99448.01;;;22.73;27.93
44313;BME280;38833;51.142;-0.974;2022-12-10T12:13:06;99449.42;;;22.23;27.95
44313;BME280;38833;51.142;-0.974;2022-12-10T12:15:44;99448.63;;;22.13;28.04
44313;BME280;38833;51.142;-0.974;2022-12-10T12:18:23;99447.19;;;22.67;27.98
44313;BME280;38833;51.142;-0.974;2022-12-10T12:21:02;99452.64;;;22.32;27.87
44313;BME280;38833;51.142;-0.974;2022-12-10T12:23:43;99447.78;;;22.31;27.88
44313;BME280;38833;51.142;-0.974;2022-12-10T12:26:23;99442.99;;;22.21;28.01
44313;BME280;38833;51.142;-0.974;2022-12-10T12:29:08;99442.99;;;22.37;27.83
44313;BME280;38833;51.142;-0.974;2022-12-10T12:31:47;99440.49;;;22.33;28.16
44313;BME280;38833;51.142;-0.974;2022-12-10T12:34:25;99438.12;;;22.09;28.13
44313;BME280;38833;51.142;-0.974;2022-12-10T12:37:01;99437.98;;;22.56;28.14
44313;BME280;38833;51.142;-0.974;2022-12-10T12:39:41;99436.65;;;22.28;28.16
44313;BME280;38833;51.142;-0.974;2022-12-10T12:42:23;99434.40;;;22.28;28.17
44313;BME280;38833;51.142;-0.974;2022-12-10T12:45:03;99431.80;;;21.98;28.23
44313;BME280;38833;51.142;-0.974;2022-12-10T12:47:39;99431.63;;;21.97;28.22
44313;BME280;38833;51.142;-0.974;2022-12-10T12:50:24;99430.94;;;22.06;28.20
44313;BME280;38833;51.142;-0.974;2022-12-10T12:53:00;99433.32;;;21.53;28.55
44313;BME280;38833;51.142;-0.974;2022-12-10T12:55:41;99433.92;;;21.35;28.54
44313;BME280;38833;51.142;-0.974;2022-12-10T12:59:17;99426.17;;;21.41;28.59
44313;BME280;38833;51.142;-0.974;2022-12-10T13:01:57;99424.72;;;21.72;28.88
44313;BME280;38833;51.142;-0.974;2022-12-10T13:04:35;99423.35;;;22.42;28.01
44313;BME280;38833;51.142;-0.974;2022-12-10T13:07:28;99422.70;;;22.28;28.37
44313;BME280;38833;51.142;-0.974;2022-12-10T13:10:25;99423.39;;;22.33;28.38
44313;BME280;38833;51.142;-0.974;2022-12-10T13:13:17;99425.21;;;22.83;28.38
44313;BME280;38833;51.142;-0.974;2022-12-10T13:15:55;99426.20;;;22.53;29.05
44313;BME280;38833;51.142;-0.974;2022-12-10T13:18:37;99425.52;;;22.90;29.32
44313;BME280;38833;51.142;-0.974;2022-12-10T13:21:30;99417.59;;;23.38;29.21
44313;BME280;38833;51.142;-0.974;2022-12-10T13:24:10;99413.82;;;23.25;28.99
44313;BME280;38833;51.142;-0.974;2022-12-10T13:27:04;99412.59;;;23.48;28.93
44313;BME280;38833;51.142;-0.974;2022-12-10T13:29:45;99416.70;;;23.97;28.89
44313;BME280;38833;51.142;-0.974;2022-12-10T13:32:20;99413.94;;;23.24;28.89
44313;BME280;38833;51.142;-0.974;2022-12-10T13:35:30;99410.53;;;23.98;27.89
44313;BME280;38833;51.142;-0.974;2022-12-10T13:38:15;99404.75;;;23.65;28.33
44313;BME280;38833;51.142;-0.974;2022-12-10T13:41:01;99407.86;;;23.63;28.45
44313;BME280;38833;51.142;-0.974;2022-12-10T13:43:37;99408.98;;;23.69;28.50